Aviation Digital Data Service (ADDS)

Output produced by METARs form (0642 UTC 24 March 2019)
found at http://www.aviationweather.gov/metar/data/
 
KABR 240553Z AUTO 33003KT 7SM CLR 01/M01 A3008 RMK AO2 SLP200 T00061006 10028 21006 400611089 53004 $
KABR 240532Z 2406/2506 00000KT P6SM OVC150 
     FM240900 VRB03KT 4SM BR OVC070 
     FM241200 01007KT 3/4SM BR OVC004 
     FM241800 03014G20KT P6SM OVC006 
     FM242200 03014G20KT P6SM OVC012
       
KBKX 240556Z AUTO 10007KT 10SM -RA OVC065 06/03 RMK AO2 RAB0458 SLPNO P0000 60000 T00560028 10083 20044 401061033 $
K9V9 240635Z AUTO 06005KT 10SM BKN050 OVC055 06/05 A3003 RMK AO2 T00560052
KCUT 240553Z AUTO 24003KT 7SM -RA OVC027 01/00 A2997 RMK AO2 UPB0454E01B29E45RAB01E29B45 SLP161 P0000 60002 T00110000 10028 20011 50005
KD07 240556Z AUTO 15007KT 03/03 A3003 RMK AO1 SLP190 T00330033 10072 20017 51009
KHON 240555Z AUTO 06006KT 10SM FEW046 OVC060 04/03 A3006 RMK AO2 RAE30 SLP190 P0000 60000 T00440028 10078 20044 400940000 50007
KHON 240520Z 2406/2506 VRB04KT P6SM OVC050 
     FM241000 04005KT P6SM OVC035 
     FM241900 01011KT P6SM OVC035 
     FM250300 03008KT P6SM OVC025
       
KMDS 240635Z AUTO 06006KT 10SM FEW044 OVC060 03/03 A3005 RMK AO2
KMHE 240553Z AUTO 05003KT 10SM OVC060 06/03 A3005 RMK AO2 SLP184 T00560028 10089 20056 401110006 50004
KMBG 240552Z AUTO 23003KT 8SM CLR 01/M02 A3003 RMK AO2 SLP185 T00111017 10044 20011 400671017 51007
KMBG 240532Z 2406/2506 00000KT P6SM SKC 
     FM240900 00000KT 5SM BR OVC090 
     FM241100 VRB04KT 1 1/2SM BR OVC035 
     FM241600 04012KT P6SM OVC007 
     FM242000 05012KT P6SM OVC011
       
KPHP 240555Z AUTO 08005KT 6SM BR OVC018 04/04 A3003 RMK AO2 SLP176 60000 T00390039 10072 20039 51006
KPIR 240553Z AUTO 07006KT 5SM -RA BR OVC055 02/02 A3004 RMK AO2 RAB33 SLP185 P0000 60000 T00220022 10061 20017 400940011 51005
KPIR 240532Z 2406/2506 07003KT 6SM BR VCSH OVC050 
     FM240800 VRB03KT P6SM OVC035 
     FM241600 02008KT 6SM BR OVC015 
     FM242200 04010G16KT P6SM OVC010 
     FM250300 06009KT P6SM OVC010
       
KIEN 240628Z AUTO 07003KT 5SM BR OVC015 04/02 A3000 RMK AO2 T00390017
KRAP 240639Z AUTO 11005KT 2 1/2SM BR BKN013 OVC028 03/03 A3000 RMK AO2 T00330028
KRAP 240520Z 2406/2506 VRB04KT 4SM BR OVC015 
     FM241000 VRB04KT 1/2SM FG OVC005 
     FM241600 04007KT 1SM BR VCSH OVC004
       
KFSD 240556Z AUTO 04005KT 10SM OVC049 07/03 A3004 RMK AO2 SLP179 T00670033 10111 20067 401391006 58002
KFSD 240520Z 2406/2506 07005KT P6SM OVC060 
     FM241300 03006KT P6SM OVC035 
     FM242100 02013G18KT P6SM BKN050 
     FM250000 02013G19KT P6SM OVC035 
     FM250300 03011G16KT P6SM BKN025
       
K8D3 240556Z AUTO 20005KT 02/01 A3007 RMK AO1 SLP197 T00170011 10067 20017 400891028 53001
KSPF 240635Z AUTO 00000KT 10SM OVC027 04/04 A2999 RMK AO2
KATY 240553Z AUTO 18003KT 8SM UP OVC055 03/01 A3007 RMK AO2 RAB42E43UPB43 SLP197 P0000 60000 T00280011 10061 20022 400781039 53005
KATY 240532Z 2406/2506 00000KT P6SM VCSH OVC070 
     TEMPO 2406/2410 -SHRA 
     FM241500 02011KT P6SM OVC100 
     FM241900 03013G19KT P6SM OVC017 
     FM242200 03014G20KT P6SM OVC009 
     FM242300 03014KT P6SM OVC009
       
KICR 240553Z AUTO 00000KT 10SM OVC025 06/03 A3002 RMK AO2 SLP175 T00560028 10094 20050 401110039 51003
KYKN 240556Z AUTO 05007KT 10SM -RA OVC065 06/03 A3001 RMK AO2 RAB45 SLP181 P0000 60000 T00610033 10083 20061 400940000 58003